createdAt,value
2018-04-12T00:03:09.274Z,18.60
2018-04-12T00:08:10.868Z,17.00
2018-04-12T00:13:13.187Z,20.93
2018-04-12T00:18:14.718Z,22.30
2018-04-12T00:23:17.031Z,24.40
2018-04-12T00:28:18.572Z,23.10
2018-04-12T00:33:20.978Z,23.80
2018-04-12T00:38:22.541Z,23.60
2018-04-12T00:43:24.125Z,29.63
2018-04-12T00:48:25.688Z,24.07
2018-04-12T00:53:45.724Z,26.50
2018-04-12T00:58:47.372Z,26.67
2018-04-12T01:03:48.921Z,26.57
2018-04-12T01:08:50.444Z,27.63
2018-04-12T01:13:51.990Z,27.10
2018-04-12T01:18:53.536Z,26.40
2018-04-12T01:23:55.086Z,29.93
2018-04-12T01:28:56.676Z,32.00
2018-04-12T01:33:58.267Z,34.00
2018-04-12T01:38:59.805Z,38.07
2018-04-12T01:44:01.366Z,39.53
2018-04-12T01:49:02.954Z,40.80
2018-04-12T01:54:04.484Z,37.93
2018-04-12T01:59:06.005Z,44.03
2018-04-12T02:04:07.530Z,48.00
2018-04-12T02:09:09.191Z,48.23
2018-04-12T02:14:11.472Z,52.57
2018-04-12T02:19:13.751Z,58.90
2018-04-12T02:24:16.298Z,56.67
2018-04-12T02:29:18.034Z,64.57
2018-04-12T02:34:19.566Z,66.93
2018-04-12T02:39:21.094Z,64.40
2018-04-12T02:44:22.615Z,74.53
2018-04-12T02:49:24.170Z,69.97
2018-04-12T02:54:25.683Z,66.60
2018-04-12T02:59:27.294Z,71.70
2018-04-12T03:04:28.803Z,64.20
2018-04-12T03:09:31.222Z,71.33
2018-04-12T03:14:32.766Z,60.53
2018-04-12T03:19:34.273Z,57.97
2018-04-12T03:24:35.790Z,66.00
2018-04-12T03:29:38.095Z,68.07
2018-04-12T03:34:39.643Z,57.50
2018-04-12T03:39:41.937Z,67.60
2018-04-12T03:44:44.231Z,57.10
2018-04-12T03:49:45.756Z,63.27
2018-04-12T03:54:47.302Z,63.90
2018-04-12T03:59:48.827Z,64.63
2018-04-12T04:04:50.567Z,56.60
2018-04-12T04:09:52.113Z,66.50
2018-04-12T04:31:00.275Z,72.23
2018-04-12T04:36:02.629Z,65.33
2018-04-12T04:41:04.206Z,64.63
2018-04-12T04:46:05.812Z,65.93
2018-04-12T04:51:08.139Z,62.40
2018-04-12T04:56:09.651Z,60.93
2018-04-12T05:01:11.194Z,62.53
2018-04-12T05:06:12.744Z,70.60
2018-04-12T05:11:14.276Z,63.57
2018-04-12T05:16:15.822Z,67.97
2018-04-12T05:21:17.424Z,66.10
2018-04-12T05:26:18.957Z,65.57
2018-04-12T05:31:20.479Z,65.60
2018-04-12T05:36:22.100Z,69.33
2018-04-12T05:41:24.441Z,69.17
2018-04-12T05:46:26.031Z,72.10
2018-04-12T05:51:32.610Z,74.37
2018-04-12T05:56:34.131Z,69.60
2018-04-12T06:01:35.646Z,64.83
2018-04-12T06:06:37.233Z,76.20
2018-04-12T06:11:38.758Z,61.57
2018-04-12T06:16:40.309Z,71.90
2018-04-12T06:21:41.815Z,62.30
2018-04-12T06:26:43.328Z,65.83
2018-04-12T06:31:45.645Z,63.23
2018-04-12T06:36:47.251Z,62.17
2018-04-12T06:41:48.784Z,64.27
2018-04-12T06:46:50.518Z,67.63
2018-04-12T06:51:52.828Z,62.63
2018-04-12T06:56:54.651Z,63.17
2018-04-12T07:01:56.192Z,57.63
2018-04-12T07:06:57.767Z,55.33
2018-04-12T07:11:59.340Z,54.90
2018-04-12T07:17:00.909Z,55.40
2018-04-12T07:22:02.730Z,53.23
2018-04-12T07:27:05.049Z,67.63
2018-04-12T07:32:06.716Z,52.23
2018-04-12T07:37:08.429Z,46.60
2018-04-12T07:42:09.955Z,43.00
2018-04-12T07:47:11.584Z,38.27
2018-04-12T07:52:14.466Z,42.03
2018-04-12T07:57:15.996Z,37.30
2018-04-12T08:02:17.516Z,45.33
2018-04-12T08:07:19.812Z,35.60
2018-04-12T08:12:22.121Z,39.83
2018-04-12T08:17:23.673Z,33.50
2018-04-12T08:22:25.246Z,39.63
2018-04-12T08:27:26.769Z,41.80
2018-04-12T08:32:28.303Z,43.23
2018-04-12T08:37:29.880Z,38.87
2018-04-12T08:42:31.428Z,37.40
2018-04-12T08:47:32.961Z,42.40
2018-04-12T08:52:35.323Z,44.80
2018-04-12T08:57:36.860Z,43.10
2018-04-12T09:02:38.390Z,43.23
2018-04-12T09:07:40.685Z,40.90
2018-04-12T09:12:43.087Z,46.87
2018-04-12T09:17:44.608Z,44.80
2018-04-12T09:22:46.243Z,37.50
2018-04-12T09:27:47.816Z,36.27
2018-04-12T09:32:49.337Z,35.03
2018-04-12T09:37:51.747Z,32.50
2018-04-12T09:42:53.272Z,32.90
2018-04-12T09:47:54.748Z,30.23
2018-04-12T09:52:56.303Z,17.77
2018-04-12T09:57:57.839Z,12.83
2018-04-12T10:02:59.361Z,11.87
2018-04-12T10:08:07.566Z,10.77
2018-04-12T10:13:09.033Z,11.93
2018-04-12T10:18:11.314Z,11.60
2018-04-12T10:23:12.857Z,11.83
2018-04-12T10:28:14.390Z,10.73
2018-04-12T10:33:15.928Z,13.13
2018-04-12T10:38:17.538Z,12.70
2018-04-12T10:43:22.292Z,11.57
2018-04-12T10:48:25.911Z,10.70
2018-04-12T10:53:32.626Z,13.87
2018-04-12T10:58:34.155Z,12.50
2018-04-12T11:03:35.773Z,11.10
2018-04-12T11:08:37.506Z,16.83
2018-04-12T11:13:46.739Z,14.63
2018-04-12T11:18:48.264Z,11.83
2018-04-12T11:23:49.732Z,15.57
2018-04-12T11:28:51.310Z,18.60
2018-04-12T11:33:52.932Z,15.67
2018-04-12T11:38:54.527Z,19.80
2018-04-12T11:43:56.064Z,31.87
2018-04-12T11:48:57.675Z,24.07
2018-04-12T11:53:59.267Z,24.63
2018-04-12T11:59:00.820Z,24.27
2018-04-12T12:04:02.560Z,23.23
2018-04-12T12:09:04.156Z,24.73
2018-04-12T12:14:05.681Z,25.40
2018-04-12T12:19:07.284Z,33.47
2018-04-12T12:24:08.976Z,28.80
2018-04-12T12:29:10.575Z,24.47
2018-04-12T12:34:12.133Z,26.80
2018-04-12T12:39:13.720Z,24.20
2018-04-12T12:44:15.302Z,24.47
2018-04-12T12:49:16.860Z,24.07
2018-04-12T12:54:19.083Z,18.27
2018-04-12T12:59:20.676Z,26.70
2018-04-12T13:04:22.960Z,23.87
2018-04-12T13:09:25.279Z,27.90
2018-04-12T13:14:26.899Z,14.30
2018-04-12T13:19:28.420Z,18.57
2018-04-12T13:24:29.994Z,16.73
2018-04-12T13:29:31.525Z,22.30
2018-04-12T13:34:33.953Z,17.33
2018-04-12T13:39:35.640Z,18.47
2018-04-12T13:44:37.211Z,17.93
2018-04-12T13:49:38.753Z,19.50
2018-04-12T13:54:40.371Z,23.63
2018-04-12T13:59:41.944Z,14.53
2018-04-12T14:04:43.521Z,19.67
2018-04-12T14:09:45.057Z,21.50
2018-04-12T14:14:46.625Z,24.73
2018-04-12T14:19:48.216Z,17.80
2018-04-12T14:24:49.836Z,13.90
2018-04-12T14:29:51.535Z,15.87
2018-04-12T14:34:52.971Z,24.83
2018-04-12T14:39:54.496Z,16.10
2018-04-12T14:44:56.270Z,16.33
2018-04-12T14:49:57.799Z,21.47
2018-04-12T14:54:59.334Z,19.03
2018-04-12T15:00:00.844Z,21.53
2018-04-12T15:05:02.418Z,21.70
2018-04-12T15:10:04.013Z,22.67
2018-04-12T15:15:05.666Z,21.70
2018-04-12T15:20:07.214Z,17.80
2018-04-12T15:25:08.735Z,22.97
2018-04-12T15:30:11.134Z,22.60
2018-04-12T15:35:12.693Z,24.33
2018-04-12T15:40:15.030Z,24.03
2018-04-12T15:45:16.555Z,22.17
2018-04-12T15:50:18.099Z,27.80
2018-04-12T15:55:20.392Z,24.10
2018-04-12T16:00:22.681Z,24.97
2018-04-12T16:05:24.990Z,26.30
2018-04-12T16:10:26.493Z,35.10
2018-04-12T16:15:28.016Z,30.03
2018-04-12T16:20:29.591Z,22.57
2018-04-12T16:25:31.124Z,24.90
2018-04-12T16:30:32.684Z,25.63
2018-04-12T16:35:34.216Z,24.70
2018-04-12T16:40:35.768Z,24.77
2018-04-12T16:45:37.310Z,21.50
2018-04-12T16:50:39.587Z,24.33
2018-04-12T16:55:41.905Z,26.43
2018-04-12T17:00:43.433Z,27.13
2018-04-12T17:05:44.971Z,24.90
2018-04-12T17:10:46.569Z,25.23
2018-04-12T17:15:48.078Z,27.20
2018-04-12T17:20:49.608Z,32.33
2018-04-12T17:25:51.204Z,25.97
2018-04-12T17:30:53.463Z,29.63
2018-04-12T17:35:55.085Z,25.70
2018-04-12T17:40:56.656Z,28.63
2018-04-12T17:45:58.191Z,30.03
2018-04-12T17:50:59.739Z,26.50
2018-04-12T17:56:01.240Z,60.40
2018-04-12T18:01:02.875Z,37.00
2018-04-12T18:06:04.564Z,31.13
2018-04-12T18:11:06.947Z,32.37
2018-04-12T18:16:09.432Z,29.37
2018-04-12T18:21:11.855Z,34.33
2018-04-12T18:26:13.400Z,47.47
2018-04-12T18:31:15.126Z,33.93
2018-04-12T18:36:16.638Z,27.53
2018-04-12T18:41:19.072Z,34.13
2018-04-12T18:46:20.676Z,28.80
2018-04-12T18:51:22.391Z,21.10
2018-04-12T18:56:24.014Z,28.17
2018-04-12T19:01:26.404Z,16.80
2018-04-12T19:06:28.195Z,13.17
2018-04-12T19:11:30.687Z,15.10
2018-04-12T19:16:32.286Z,30.23
2018-04-12T19:21:34.144Z,30.10
2018-04-12T19:26:36.050Z,28.90
2018-04-12T19:31:37.617Z,40.97
2018-04-12T19:36:39.279Z,27.33
2018-04-12T19:41:41.029Z,35.90
2018-04-12T19:46:42.882Z,34.00
2018-04-12T19:51:44.530Z,27.87
2018-04-12T19:56:46.173Z,25.57
2018-04-12T20:01:47.856Z,26.73
2018-04-12T20:06:49.497Z,22.97
2018-04-12T20:11:51.234Z,26.60
2018-04-12T20:16:52.910Z,29.03
2018-04-12T20:21:54.656Z,29.77
2018-04-12T20:26:56.290Z,32.53
2018-04-12T20:31:57.926Z,28.10
2018-04-12T20:36:59.574Z,23.73
2018-04-12T20:42:01.328Z,26.13
2018-04-12T20:47:02.941Z,25.80
2018-04-12T20:52:05.291Z,25.00
2018-04-12T20:57:07.025Z,25.30
2018-04-12T21:02:08.712Z,29.60
2018-04-12T21:07:10.265Z,31.53
2018-04-12T21:12:12.038Z,28.67
2018-04-12T21:17:13.612Z,34.13
2018-04-12T21:22:15.348Z,29.77
2018-04-12T21:27:17.201Z,27.80
2018-04-12T21:32:18.822Z,25.27
2018-04-12T21:37:20.576Z,36.00
2018-04-12T21:42:22.099Z,24.97
2018-04-12T21:47:23.733Z,22.23
2018-04-12T21:52:25.391Z,26.27
2018-04-12T21:57:27.200Z,27.77
2018-04-12T22:02:28.720Z,23.57
2018-04-12T22:07:30.343Z,24.20
2018-04-12T22:12:31.959Z,22.27
2018-04-12T22:17:33.495Z,27.53
2018-04-12T22:22:35.181Z,24.77
2018-04-12T22:27:36.781Z,19.50
2018-04-12T22:32:38.948Z,10.87
2018-04-12T22:37:40.578Z,15.07
2018-04-12T22:42:42.166Z,15.70
2018-04-12T22:47:43.691Z,9.73
2018-04-12T22:52:45.324Z,8.10
2018-04-12T22:57:47.091Z,10.13
2018-04-12T23:02:48.594Z,9.27
2018-04-12T23:07:50.178Z,8.70
2018-04-12T23:23:06.931Z,11.13
2018-04-12T23:28:08.483Z,9.10
2018-04-12T23:33:09.995Z,11.43
2018-04-12T23:38:11.524Z,11.77
2018-04-12T23:43:13.145Z,12.20
2018-04-12T23:48:14.742Z,14.53
2018-04-12T23:53:16.267Z,13.43
2018-04-12T23:58:17.811Z,12.80
